Time;durP1;ratioP1;P1;durP2;ratioP2;P2;SDS_P1;SDS_P2;PMS_P1;PMS_P2;Temp;Humidity;BMP_temperature;BMP_pressure;BME280_temperature;BME280_humidity;BME280_pressure;Samples;Min_cycle;Max_cycle;Signal;HPM_P1;HPM_P2
2022/12/28 00:00:08;;;;;;;2.07;1.77;;;2.50;99.90;;;;;;5089525;28;20487;-51
2022/12/28 00:02:36;;;;;;;4.23;2.57;;;2.30;99.90;;;;;;5089579;28;20543;-49
2022/12/28 00:05:03;;;;;;;2.53;2.30;;;2.40;99.90;;;;;;5089033;28;20518;-50
2022/12/28 00:07:30;;;;;;;2.57;2.37;;;2.30;99.90;;;;;;5088839;28;20510;-49
2022/12/28 00:09:57;;;;;;;2.70;2.50;;;2.10;99.90;;;;;;5089336;28;20500;-49
2022/12/28 00:12:24;;;;;;;2.00;1.80;;;2.20;99.90;;;;;;5089851;28;20557;-49
2022/12/28 00:14:51;;;;;;;4.07;2.37;;;2.20;99.90;;;;;;5089798;28;20438;-49
2022/12/28 00:17:18;;;;;;;3.07;1.93;;;2.10;99.90;;;;;;5090630;28;20471;-48
2022/12/28 00:19:46;;;;;;;3.60;1.73;;;1.90;99.90;;;;;;5091125;28;20494;-48
2022/12/28 00:22:13;;;;;;;3.10;1.43;;;2.10;99.90;;;;;;5091058;28;20552;-48
2022/12/28 00:24:40;;;;;;;2.60;1.97;;;2.00;99.90;;;;;;5090546;28;20444;-49
2022/12/28 00:27:07;;;;;;;1.67;1.57;;;1.90;99.90;;;;;;5090618;28;20444;-50
2022/12/28 00:29:34;;;;;;;2.33;1.80;;;1.80;99.90;;;;;;5090764;28;20504;-49
2022/12/28 00:32:01;;;;;;;2.23;2.03;;;1.80;99.90;;;;;;5090419;28;21043;-49
2022/12/28 00:34:28;;;;;;;3.43;3.00;;;1.90;99.90;;;;;;5089789;28;20523;-48
2022/12/28 00:36:56;;;;;;;3.57;3.27;;;1.90;99.90;;;;;;5090335;28;20523;-49
2022/12/28 00:39:23;;;;;;;3.00;2.20;;;1.90;99.90;;;;;;5092793;28;20878;-49
2022/12/28 00:41:50;;;;;;;2.33;2.07;;;2.10;99.90;;;;;;5092257;28;20558;-49
2022/12/28 00:44:17;;;;;;;3.60;2.63;;;1.90;99.90;;;;;;5092619;28;20541;-48
2022/12/28 00:46:43;;;;;;;3.40;2.37;;;1.70;99.90;;;;;;5093038;28;21058;-50
2022/12/28 00:49:10;;;;;;;2.63;2.20;;;1.60;99.90;;;;;;5091963;28;20554;-48
2022/12/28 00:51:37;;;;;;;2.43;2.20;;;1.70;99.90;;;;;;5090773;28;20545;-50
2022/12/28 00:54:06;;;;;;;1.60;1.17;;;1.80;99.90;;;;;;5091593;28;20538;-51
2022/12/28 00:56:33;;;;;;;1.60;1.00;;;1.80;99.90;;;;;;5094072;28;21002;-50
2022/12/28 00:59:00;;;;;;;2.40;1.10;;;1.70;99.90;;;;;;5093626;28;20472;-49
2022/12/28 01:01:28;;;;;;;11.30;5.10;;;1.70;99.90;;;;;;5090897;28;20542;-50
2022/12/28 01:03:55;;;;;;;4.23;2.60;;;1.60;99.90;;;;;;5093242;28;20634;-49
2022/12/28 01:06:22;;;;;;;2.33;1.37;;;1.50;99.90;;;;;;5093616;28;20471;-48
2022/12/28 01:08:49;;;;;;;1.73;1.30;;;1.50;99.90;;;;;;5093536;28;20440;-50
2022/12/28 01:11:20;;;;;;;1.60;1.27;;;1.60;99.90;;;;;;5093593;28;20995;-50
2022/12/28 01:13:47;;;;;;;1.73;0.80;;;1.50;99.90;;;;;;5092445;28;20473;-49
2022/12/28 01:16:16;;;;;;;1.40;1.00;;;1.60;99.90;;;;;;5093414;28;20531;-49
2022/12/28 01:18:44;;;;;;;1.53;1.00;;;1.50;99.90;;;;;;5093167;28;20519;-49
2022/12/28 01:21:13;;;;;;;1.30;0.87;;;1.40;99.90;;;;;;5093306;28;20467;-49
2022/12/28 01:23:40;;;;;;;1.30;0.90;;;1.50;99.90;;;;;;5093234;28;20531;-48
2022/12/28 01:26:08;;;;;;;1.23;0.77;;;1.60;99.90;;;;;;5093685;28;20467;-49
2022/12/28 01:28:36;;;;;;;1.70;0.80;;;1.60;99.90;;;;;;5093362;28;20848;-50
2022/12/28 01:31:05;;;;;;;1.77;1.20;;;1.60;99.90;;;;;;5093046;28;20552;-49
2022/12/28 01:33:32;;;;;;;2.43;1.50;;;1.50;99.90;;;;;;5092613;28;20471;-49
2022/12/28 01:35:59;;;;;;;1.57;1.33;;;1.30;99.90;;;;;;5092910;28;20460;-48
2022/12/28 01:38:25;;;;;;;2.20;1.17;;;1.30;99.90;;;;;;5093351;28;20543;-49
2022/12/28 01:40:52;;;;;;;1.10;0.80;;;1.10;99.90;;;;;;5093193;28;20873;-49
2022/12/28 01:43:19;;;;;;;1.40;1.10;;;1.30;99.90;;;;;;5093229;28;20907;-50
2022/12/28 01:45:52;;;;;;;1.30;1.20;;;1.60;99.90;;;;;;5093049;28;20467;-49
2022/12/28 01:48:24;;;;;;;1.60;1.30;;;1.50;99.90;;;;;;5093286;28;21012;-49
2022/12/28 01:50:53;;;;;;;1.97;1.00;;;1.60;99.90;;;;;;5091466;28;20510;-49
2022/12/28 01:53:21;;;;;;;1.40;0.87;;;1.30;99.90;;;;;;5092452;28;20496;-49
2022/12/28 01:55:49;;;;;;;1.50;0.60;;;1.30;99.90;;;;;;5091629;28;20496;-51
2022/12/28 01:58:19;;;;;;;1.20;0.60;;;1.30;99.90;;;;;;5091753;28;20921;-50
2022/12/28 02:00:46;;;;;;;1.10;0.70;;;1.50;99.90;;;;;;5091509;28;20884;-49
2022/12/28 02:03:19;;;;;;;2.30;0.63;;;1.20;99.90;;;;;;5091021;28;20520;-49
2022/12/28 02:05:50;;;;;;;1.20;0.90;;;1.10;99.90;;;;;;5091206;28;20508;-49
2022/12/28 02:08:23;;;;;;;1.23;0.83;;;1.20;99.90;;;;;;5091253;28;20539;-49
2022/12/28 02:10:52;;;;;;;1.10;0.90;;;1.30;99.90;;;;;;5092844;28;20497;-51
2022/12/28 02:13:21;;;;;;;1.33;0.70;;;1.30;99.90;;;;;;5092788;28;20882;-49
2022/12/28 02:15:49;;;;;;;1.27;0.70;;;1.30;99.90;;;;;;5092340;28;20893;-49
2022/12/28 02:18:19;;;;;;;1.10;0.90;;;1.20;99.90;;;;;;5092869;28;20875;-49
2022/12/28 02:21:12;;;;;;;2.20;0.90;;;1.40;99.90;;;;;;5092682;28;20523;-49
2022/12/28 02:23:57;;;;;;;0.93;0.70;;;1.40;99.90;;;;;;5074122;28;20479;-48
2022/12/28 02:26:42;;;;;;;2.10;1.53;;;1.30;99.90;;;;;;5077702;28;20522;-48
2022/12/28 02:29:29;;;;;;;5.27;2.40;;;0.90;99.90;;;;;;5091599;28;20879;-50
2022/12/28 02:32:04;;;;;;;2.17;1.67;;;0.50;99.90;;;;;;5091234;28;20546;-51
2022/12/28 02:34:37;;;;;;;3.90;2.93;;;0.10;99.90;;;;;;5089656;28;20959;-50
2022/12/28 02:37:09;;;;;;;3.80;3.40;;;0.20;99.90;;;;;;5086402;28;20531;-48
2022/12/28 02:39:41;;;;;;;4.37;3.47;;;0.40;99.90;;;;;;5088378;28;20440;-48
2022/12/28 02:42:09;;;;;;;3.63;3.23;;;0.40;99.90;;;;;;5091833;28;20468;-49
2022/12/28 02:50:13;;;;;;;6.70;4.53;;;0.40;99.90;;;;;;5084322;28;20508;-49
2022/12/28 02:53:01;;;;;;;7.90;4.70;;;0.20;99.90;;;;;;5089863;28;20952;-49
2022/12/28 02:58:58;;;;;;;20.87;5.33;;;0.30;99.90;;;;;;5091349;28;20581;-49
2022/12/28 03:01:46;;;;;;;43.07;8.23;;;0.50;99.90;;;;;;5053186;28;20543;-50
2022/12/28 03:04:18;;;;;;;8.27;4.70;;;0.40;99.90;;;;;;5088335;28;20479;-49
2022/12/28 03:09:42;;;;;;;96.37;10.77;;;0.30;99.90;;;;;;5089518;28;20431;-48
2022/12/28 03:12:12;;;;;;;36.27;6.77;;;0.10;99.90;;;;;;5089497;28;20555;-52
2022/12/28 03:14:43;;;;;;;59.87;10.70;;;0.10;99.90;;;;;;5089136;28;20523;-50
2022/12/28 03:31:13;;;;;;;5.00;3.80;;;0.60;99.90;;;;;;5088931;28;20983;-50
2022/12/28 03:33:45;;;;;;;3.63;3.13;;;0.60;99.90;;;;;;5069885;28;20472;-51
2022/12/28 03:36:18;;;;;;;7.20;3.70;;;0.60;99.90;;;;;;5090293;28;20475;-49
2022/12/28 03:38:52;;;;;;;29.90;6.37;;;0.50;99.90;;;;;;5090575;28;20535;-49
2022/12/28 03:41:26;;;;;;;15.40;5.40;;;0.20;99.90;;;;;;5052020;28;1089164;-50
2022/12/28 03:43:58;;;;;;;4.57;3.60;;;0.20;99.90;;;;;;5090400;28;20471;-49
2022/12/28 03:46:28;;;;;;;8.67;4.80;;;0.40;99.90;;;;;;5090964;28;20433;-49
2022/12/28 03:48:58;;;;;;;11.73;6.80;;;0.40;99.90;;;;;;5091477;28;20539;-49
2022/12/28 03:51:27;;;;;;;10.90;4.33;;;0.40;99.90;;;;;;5090141;28;20476;-49
2022/12/28 03:53:54;;;;;;;5.20;4.03;;;0.60;99.90;;;;;;5090928;28;21011;-49
2022/12/28 03:56:24;;;;;;;10.40;3.80;;;0.30;99.90;;;;;;5090959;28;20544;-49
2022/12/28 03:58:52;;;;;;;11.57;4.07;;;0.20;99.90;;;;;;5089366;28;20528;-49
2022/12/28 04:01:19;;;;;;;4.80;3.60;;;0.00;99.90;;;;;;5089261;28;20932;-51
2022/12/28 04:03:46;;;;;;;2.57;2.33;;;0.10;99.90;;;;;;5089186;28;20738;-49
2022/12/28 04:06:16;;;;;;;3.67;2.73;;;0.20;99.90;;;;;;5086124;28;20527;-49
2022/12/28 04:08:43;;;;;;;3.50;3.20;;;0.30;99.90;;;;;;5088963;28;20929;-49
2022/12/28 04:11:10;;;;;;;3.77;2.80;;;0.30;99.90;;;;;;5089282;28;20638;-50
2022/12/28 04:13:38;;;;;;;6.57;3.83;;;0.50;99.90;;;;;;5092263;28;20471;-49
2022/12/28 04:16:08;;;;;;;7.87;4.07;;;0.30;99.90;;;;;;5095032;28;20475;-51
2022/12/28 04:18:35;;;;;;;4.63;3.10;;;0.20;99.90;;;;;;5095244;28;20475;-49
2022/12/28 04:21:02;;;;;;;9.43;4.60;;;0.00;99.90;;;;;;5094587;28;20965;-49
2022/12/28 04:23:31;;;;;;;7.00;5.93;;;-0.20;99.90;;;;;;5094987;28;20475;-49
2022/12/28 04:26:00;;;;;;;7.17;4.37;;;0.00;99.90;;;;;;5095004;28;20531;-49
2022/12/28 04:28:27;;;;;;;12.67;4.50;;;0.10;99.90;;;;;;5095304;28;20523;-49
2022/12/28 04:30:54;;;;;;;10.00;3.70;;;0.10;99.90;;;;;;5094068;28;20538;-49
2022/12/28 04:33:21;;;;;;;12.03;4.10;;;-0.20;99.90;;;;;;5093197;28;20873;-49
2022/12/28 04:35:48;;;;;;;9.73;4.27;;;-0.10;99.90;;;;;;5094613;28;20744;-49
2022/12/28 04:38:15;;;;;;;8.70;4.43;;;-0.10;99.90;;;;;;5095422;28;20525;-49
2022/12/28 04:40:43;;;;;;;3.93;3.40;;;-0.30;99.90;;;;;;5094566;28;20431;-49
2022/12/28 04:43:10;;;;;;;5.40;3.20;;;-0.20;99.90;;;;;;5094377;28;20550;-49
2022/12/28 04:45:37;;;;;;;3.67;3.30;;;0.00;99.90;;;;;;5094047;28;20467;-52
2022/12/28 04:48:04;;;;;;;3.77;3.00;;;0.20;99.90;;;;;;5092893;28;20523;-50
2022/12/28 04:50:31;;;;;;;2.37;2.03;;;0.10;99.90;;;;;;5092256;28;20558;-50
2022/12/28 04:52:58;;;;;;;3.90;2.87;;;0.10;99.90;;;;;;5092149;28;20546;-49
2022/12/28 04:55:25;;;;;;;8.60;4.13;;;0.20;99.90;;;;;;5092344;28;20446;-49
2022/12/28 04:57:54;;;;;;;3.27;2.97;;;0.20;99.90;;;;;;5093267;28;20523;-49
2022/12/28 05:00:20;;;;;;;4.67;3.80;;;-0.20;99.90;;;;;;5093147;28;20532;-49
2022/12/28 05:02:47;;;;;;;5.00;3.60;;;-0.40;99.90;;;;;;5093206;28;21043;-51
2022/12/28 05:05:15;;;;;;;5.70;3.80;;;-0.30;99.90;;;;;;5093056;28;20517;-49
2022/12/28 05:07:42;;;;;;;12.63;5.07;;;-0.30;99.90;;;;;;5094535;28;20432;-49
2022/12/28 05:10:09;;;;;;;21.70;6.40;;;-0.40;99.90;;;;;;5092232;28;20530;-49
2022/12/28 05:12:36;;;;;;;22.37;5.40;;;-0.60;99.90;;;;;;5092655;28;20546;-51
2022/12/28 05:15:05;;;;;;;22.97;6.13;;;-0.80;99.90;;;;;;5092003;28;20543;-49
2022/12/28 05:17:32;;;;;;;52.30;8.63;;;-0.70;99.90;;;;;;5093180;28;20546;-50
2022/12/28 05:19:59;;;;;;;5.80;4.10;;;-0.70;99.90;;;;;;5092343;28;20534;-50
2022/12/28 05:22:25;;;;;;;4.10;3.70;;;-0.60;99.90;;;;;;5092346;28;20539;-50
2022/12/28 05:24:52;;;;;;;3.47;2.83;;;-0.40;99.90;;;;;;5092355;28;20515;-49
2022/12/28 05:27:19;;;;;;;2.33;2.10;;;0.00;99.90;;;;;;5091740;28;20471;-49
2022/12/28 05:29:46;;;;;;;2.80;2.23;;;0.00;99.90;;;;;;5091851;28;20519;-49
2022/12/28 05:32:14;;;;;;;5.20;4.03;;;0.10;99.90;;;;;;5092348;28;20563;-50
2022/12/28 05:34:41;;;;;;;5.27;4.47;;;0.30;99.90;;;;;;5089158;28;20493;-52
2022/12/28 05:37:08;;;;;;;6.23;4.13;;;0.20;99.90;;;;;;5089080;28;20550;-49
2022/12/28 05:39:35;;;;;;;25.10;5.70;;;0.30;99.90;;;;;;5087812;28;20505;-49
2022/12/28 05:42:02;;;;;;;11.20;5.60;;;0.10;99.90;;;;;;5089328;28;20599;-50
2022/12/28 05:44:30;;;;;;;5.37;3.47;;;-0.40;99.90;;;;;;5092015;28;20545;-50
2022/12/28 05:46:57;;;;;;;4.33;3.93;;;-0.60;99.90;;;;;;5105824;28;20943;-49
2022/12/28 05:49:25;;;;;;;4.27;3.87;;;-0.30;99.90;;;;;;5107063;28;20479;-50
2022/12/28 05:51:52;;;;;;;5.17;4.47;;;-0.40;99.90;;;;;;5090786;28;20546;-50
2022/12/28 05:54:19;;;;;;;6.43;5.27;;;-0.30;99.90;;;;;;5091217;28;20523;-51
2022/12/28 05:56:49;;;;;;;6.97;4.47;;;-0.20;99.90;;;;;;5091894;28;20515;-50
2022/12/28 05:59:16;;;;;;;29.23;6.90;;;-0.20;99.90;;;;;;5091514;28;20460;-49
2022/12/28 06:01:44;;;;;;;26.10;7.83;;;-0.30;99.90;;;;;;5090765;28;20988;-51
2022/12/28 06:04:15;;;;;;;31.60;7.83;;;-0.70;99.90;;;;;;5090908;28;20535;-48
2022/12/28 06:06:43;;;;;;;29.97;8.07;;;-0.80;99.90;;;;;;5080203;28;20432;-49
2022/12/28 06:09:10;;;;;;;4.97;3.90;;;-1.10;99.90;;;;;;5096229;28;20464;-49
2022/12/28 06:11:37;;;;;;;7.80;5.27;;;-1.10;99.90;;;;;;5077033;28;20484;-51
2022/12/28 06:14:04;;;;;;;5.27;4.77;;;-0.80;99.90;;;;;;5088608;28;20859;-50
2022/12/28 06:16:34;;;;;;;3.37;3.10;;;-0.40;99.90;;;;;;5097662;28;20440;-51
2022/12/28 06:19:04;;;;;;;6.07;3.47;;;-0.20;99.90;;;;;;5081187;28;20534;-50
2022/12/28 06:21:33;;;;;;;7.93;4.67;;;-0.40;99.90;;;;;;5085318;28;20895;-50
2022/12/28 06:24:02;;;;;;;7.57;6.87;;;-0.60;99.90;;;;;;5091068;28;20836;-49
2022/12/28 06:26:30;;;;;;;7.33;6.63;;;-0.50;99.90;;;;;;5089071;28;20990;-50
2022/12/28 06:28:58;;;;;;;12.43;11.10;;;-0.80;99.90;;;;;;5090563;28;20483;-49
2022/12/28 06:31:27;;;;;;;4.50;3.00;;;-0.50;99.90;;;;;;5090953;28;20911;-50
2022/12/28 06:33:55;;;;;;;3.50;3.20;;;-0.30;99.90;;;;;;5091320;28;20530;-49
2022/12/28 06:36:24;;;;;;;4.67;4.17;;;-0.20;99.90;;;;;;5089425;28;20848;-48
2022/12/28 06:38:53;;;;;;;6.30;5.00;;;0.10;99.90;;;;;;5091501;28;20471;-52
2022/12/28 06:41:22;;;;;;;30.67;7.23;;;-0.20;99.90;;;;;;5091749;28;20462;-50
2022/12/28 06:43:50;;;;;;;10.33;7.47;;;-0.80;99.90;;;;;;5092377;28;20468;-49
2022/12/28 06:46:18;;;;;;;5.60;4.30;;;-1.00;99.90;;;;;;5092547;28;20519;-50
2022/12/28 06:48:45;;;;;;;3.87;3.40;;;-0.70;99.90;;;;;;5092329;28;20526;-49
2022/12/28 06:51:13;;;;;;;5.97;4.27;;;-1.20;99.90;;;;;;5092358;28;20507;-49
2022/12/28 06:53:41;;;;;;;4.57;3.80;;;-1.20;99.90;;;;;;5092296;28;20543;-50
2022/12/28 06:56:10;;;;;;;3.53;3.23;;;-0.90;99.90;;;;;;5092420;28;20538;-49
2022/12/28 06:58:39;;;;;;;3.63;3.33;;;-0.70;99.90;;;;;;5092151;28;20483;-50
2022/12/28 07:01:07;;;;;;;3.17;2.40;;;-0.60;99.90;;;;;;5092039;28;20556;-49
2022/12/28 07:03:34;;;;;;;4.57;4.03;;;-0.30;99.90;;;;;;5091981;28;20476;-50
2022/12/28 07:06:02;;;;;;;6.83;5.70;;;-0.20;99.90;;;;;;5092102;28;20530;-50
2022/12/28 07:08:29;;;;;;;5.97;4.90;;;-0.40;99.90;;;;;;5091867;28;20475;-49
2022/12/28 07:11:01;;;;;;;6.00;4.77;;;-0.50;99.90;;;;;;5092288;28;20537;-49
2022/12/28 07:13:28;;;;;;;7.77;5.10;;;-0.50;99.90;;;;;;5091805;28;20468;-50
2022/12/28 07:15:56;;;;;;;10.43;6.70;;;-0.70;99.90;;;;;;5091692;28;20933;-49
2022/12/28 07:18:23;;;;;;;7.07;5.40;;;-1.30;99.90;;;;;;5091969;28;20479;-49
2022/12/28 07:20:49;;;;;;;7.30;5.20;;;-1.20;99.90;;;;;;5090950;28;20475;-49
2022/12/28 07:23:16;;;;;;;4.80;3.87;;;-0.70;99.90;;;;;;5090180;28;20542;-49
2022/12/28 07:25:43;;;;;;;5.40;4.17;;;-0.50;99.90;;;;;;5089824;28;20531;-50
2022/12/28 07:28:10;;;;;;;5.10;3.53;;;-0.30;99.90;;;;;;5089714;28;20465;-49
2022/12/28 07:30:37;;;;;;;4.03;3.70;;;-0.20;99.90;;;;;;5090031;28;20464;-50
2022/12/28 07:33:05;;;;;;;2.67;2.47;;;-0.20;99.90;;;;;;5086807;28;20562;-49
2022/12/28 07:35:32;;;;;;;2.27;1.90;;;-0.30;99.90;;;;;;5089880;28;20523;-50
2022/12/28 07:37:59;;;;;;;2.30;2.10;;;-0.10;99.90;;;;;;5091017;28;20527;-50
2022/12/28 07:40:26;;;;;;;2.50;2.30;;;-0.10;99.90;;;;;;5087999;28;20983;-50
2022/12/28 07:42:53;;;;;;;8.30;7.50;;;0.00;99.90;;;;;;5090779;28;20495;-48
2022/12/28 07:45:20;;;;;;;7.60;6.13;;;0.20;99.90;;;;;;5091127;28;20967;-49
2022/12/28 07:47:47;;;;;;;8.37;7.33;;;0.10;99.90;;;;;;5088078;28;20523;-49
2022/12/28 07:50:15;;;;;;;12.30;8.30;;;0.10;99.90;;;;;;5090906;28;20519;-49
2022/12/28 07:52:42;;;;;;;13.23;9.07;;;-0.20;99.90;;;;;;5079685;28;21001;-50
2022/12/28 07:55:09;;;;;;;10.70;8.00;;;-0.40;99.90;;;;;;5090766;28;21028;-49
2022/12/28 07:57:36;;;;;;;15.13;10.07;;;-0.30;99.90;;;;;;5091188;28;20493;-48
2022/12/28 08:00:06;;;;;;;14.47;9.30;;;-0.40;99.90;;;;;;5091268;28;20535;-49
2022/12/28 08:02:33;;;;;;;16.10;11.37;;;-1.00;99.90;;;;;;5080810;28;20444;-51
2022/12/28 08:05:00;;;;;;;14.23;9.80;;;-0.90;99.90;;;;;;5081587;28;20499;-49
2022/12/28 08:07:28;;;;;;;12.87;8.40;;;-0.70;99.90;;;;;;5088210;28;20527;-51
2022/12/28 08:09:55;;;;;;;12.37;8.87;;;-0.60;99.90;;;;;;5090836;28;20518;-51
2022/12/28 08:12:22;;;;;;;9.03;6.93;;;-0.50;99.90;;;;;;5090784;28;20562;-50
2022/12/28 08:14:48;;;;;;;7.73;4.27;;;-0.30;99.90;;;;;;5090240;28;20504;-49
2022/12/28 08:17:15;;;;;;;7.40;5.43;;;-0.20;99.90;;;;;;5090895;28;20468;-49
2022/12/28 08:19:42;;;;;;;9.07;6.67;;;-0.10;99.90;;;;;;5091113;28;20540;-50
2022/12/28 08:22:09;;;;;;;13.27;9.23;;;-0.20;99.90;;;;;;5089587;28;20538;-49
2022/12/28 08:24:37;;;;;;;12.60;10.87;;;0.10;99.90;;;;;;5089220;28;20521;-50
2022/12/28 08:27:04;;;;;;;12.70;9.67;;;-0.10;99.90;;;;;;5089255;28;20467;-49
2022/12/28 08:29:32;;;;;;;6.40;5.50;;;-0.10;99.90;;;;;;5089422;28;20751;-50
2022/12/28 08:31:59;;;;;;;6.10;4.90;;;0.00;99.90;;;;;;5089441;28;20537;-49
2022/12/28 08:34:26;;;;;;;5.10;4.00;;;0.10;99.90;;;;;;5089016;28;20519;-49
2022/12/28 08:36:53;;;;;;;5.60;5.13;;;0.30;99.90;;;;;;5090127;28;20481;-49
2022/12/28 08:39:20;;;;;;;21.30;12.87;;;0.40;99.90;;;;;;5090542;28;20530;-49
2022/12/28 08:41:48;;;;;;;15.80;11.80;;;0.00;99.90;;;;;;5112754;22;20551;-51
2022/12/28 08:44:15;;;;;;;14.77;10.40;;;-0.80;99.90;;;;;;5047772;28;20469;-52
2022/12/28 08:46:42;;;;;;;17.77;12.10;;;-0.90;99.90;;;;;;5047654;28;21014;-52
2022/12/28 08:49:09;;;;;;;15.87;13.27;;;-0.70;99.90;;;;;;5046383;28;20462;-52
2022/12/28 08:51:38;;;;;;;13.87;9.33;;;-0.40;99.90;;;;;;5049099;28;20840;-52
2022/12/28 08:54:06;;;;;;;7.87;6.20;;;-0.20;99.90;;;;;;5039561;28;20434;-52
2022/12/28 08:56:35;;;;;;;9.40;7.37;;;-0.10;99.90;;;;;;5038624;28;20532;-52
2022/12/28 08:59:04;;;;;;;8.50;7.40;;;0.10;99.90;;;;;;5038701;28;20531;-52
2022/12/28 09:01:34;;;;;;;15.10;10.63;;;0.00;99.90;;;;;;5043791;28;20542;-52
2022/12/28 09:04:01;;;;;;;13.93;9.23;;;0.20;99.90;;;;;;5043049;28;20547;-52
2022/12/28 09:06:31;;;;;;;17.93;11.27;;;0.50;99.90;;;;;;5042929;28;20529;-52
2022/12/28 09:08:59;;;;;;;12.30;8.63;;;0.20;99.90;;;;;;5042952;28;20532;-52
2022/12/28 09:11:26;;;;;;;9.43;8.00;;;-0.20;99.90;;;;;;5044644;28;20528;-52
2022/12/28 09:13:53;;;;;;;8.93;7.03;;;-0.20;99.90;;;;;;5043158;28;20490;-52
2022/12/28 09:16:25;;;;;;;7.70;6.50;;;0.00;99.90;;;;;;5042780;28;20988;-52
2022/12/28 09:18:54;;;;;;;6.70;5.73;;;0.20;99.90;;;;;;5043016;28;20430;-52
2022/12/28 09:21:22;;;;;;;6.30;5.70;;;0.10;99.90;;;;;;5040321;28;20533;-52
2022/12/28 09:23:49;;;;;;;7.23;5.43;;;0.20;99.90;;;;;;5033650;28;20463;-52
2022/12/28 09:26:19;;;;;;;7.23;5.87;;;0.40;99.90;;;;;;5039883;28;20466;-52
2022/12/28 09:28:47;;;;;;;20.63;17.53;;;0.40;99.90;;;;;;5043517;28;20465;-52
2022/12/28 09:31:14;;;;;;;19.60;12.80;;;0.00;99.90;;;;;;5037349;28;20947;-51
2022/12/28 09:34:01;;;;;;;14.03;10.93;;;-0.30;99.90;;;;;;5051276;28;20573;-52
2022/12/28 09:36:30;;;;;;;16.23;12.77;;;-0.50;99.90;;;;;;5033333;28;20549;-51
2022/12/28 09:38:58;;;;;;;16.43;14.80;;;-0.60;99.90;;;;;;5030326;28;20454;-51
2022/12/28 09:41:29;;;;;;;20.50;15.70;;;-0.50;99.90;;;;;;5010781;28;20894;-52
2022/12/28 09:44:08;;;;;;;20.30;15.67;;;-0.50;99.90;;;;;;5008896;28;20511;-52
2022/12/28 09:46:38;;;;;;;22.00;15.00;;;-0.50;99.90;;;;;;5009408;28;20443;-52
2022/12/28 09:49:13;;;;;;;22.77;13.80;;;-0.30;99.90;;;;;;5009330;28;20470;-51
2022/12/28 09:51:46;;;;;;;18.77;13.37;;;-0.20;99.90;;;;;;5009546;28;20486;-52
2022/12/28 09:54:13;;;;;;;15.07;12.40;;;0.00;99.90;;;;;;5008999;28;20527;-53
2022/12/28 09:56:43;;;;;;;11.80;8.90;;;0.00;99.90;;;;;;5009611;28;20451;-52
2022/12/28 09:59:16;;;;;;;9.40;8.50;;;0.10;99.90;;;;;;5009847;28;20538;-52
2022/12/28 10:01:45;;;;;;;8.97;7.30;;;0.20;99.90;;;;;;5009893;28;20536;-53
2022/12/28 10:04:13;;;;;;;7.30;6.60;;;0.30;99.90;;;;;;5009456;28;20962;-52
2022/12/28 10:06:42;;;;;;;11.30;6.60;;;0.40;99.90;;;;;;5026787;28;20768;-52
2022/12/28 10:09:16;;;;;;;7.70;6.77;;;0.60;99.90;;;;;;5029274;28;20944;-52
2022/12/28 10:11:43;;;;;;;8.83;7.13;;;0.70;99.90;;;;;;5028745;28;20567;-52
2022/12/28 10:14:18;;;;;;;10.93;9.83;;;0.80;99.90;;;;;;5029091;28;20451;-53
2022/12/28 10:16:46;;;;;;;16.83;13.27;;;0.70;99.90;;;;;;5021477;28;20434;-52
2022/12/28 10:19:17;;;;;;;13.87;12.20;;;0.70;99.90;;;;;;5034036;28;20918;-52
2022/12/28 10:21:46;;;;;;;15.70;12.70;;;0.70;99.90;;;;;;5038772;28;20450;-52
2022/12/28 10:24:14;;;;;;;14.17;10.93;;;0.70;99.90;;;;;;5038334;28;20434;-52
2022/12/28 10:26:44;;;;;;;12.53;10.20;;;0.70;99.90;;;;;;5040248;28;20536;-52
2022/12/28 10:29:16;;;;;;;12.93;10.77;;;0.80;99.90;;;;;;5039395;28;20533;-52
2022/12/28 10:31:43;;;;;;;14.97;13.10;;;1.00;99.90;;;;;;5037695;28;20520;-52
2022/12/28 10:34:19;;;;;;;13.37;12.00;;;1.00;99.90;;;;;;5037920;28;20492;-52
2022/12/28 10:36:47;;;;;;;19.83;17.30;;;1.10;99.90;;;;;;5032147;28;20445;-53
2022/12/28 10:39:17;;;;;;;14.60;12.70;;;1.20;99.90;;;;;;5036452;28;20469;-52
2022/12/28 10:41:45;;;;;;;11.17;10.07;;;1.00;99.90;;;;;;5032399;28;20439;-52
2022/12/28 10:44:20;;;;;;;11.80;10.73;;;1.00;99.90;;;;;;5036765;28;20770;-52
2022/12/28 10:46:52;;;;;;;16.70;13.80;;;1.10;99.90;;;;;;5037324;28;20528;-52
2022/12/28 10:49:21;;;;;;;9.53;8.60;;;1.30;99.90;;;;;;5035810;28;20474;-52
2022/12/28 10:52:04;;;;;;;8.57;7.67;;;1.20;99.90;;;;;;5042815;28;20438;-52
2022/12/28 10:54:34;;;;;;;7.90;7.07;;;1.30;99.90;;;;;;5049222;28;20480;-52
2022/12/28 10:57:01;;;;;;;12.60;9.77;;;1.60;99.90;;;;;;5049169;28;20442;-52
2022/12/28 10:59:29;;;;;;;9.97;8.87;;;1.60;99.90;;;;;;5049381;28;20910;-52
2022/12/28 11:02:20;;;;;;;10.83;9.30;;;1.60;99.90;;;;;;5048898;28;20521;-52
2022/12/28 11:04:56;;;;;;;9.00;8.10;;;1.90;99.90;;;;;;5046729;28;20529;-53
2022/12/28 11:07:31;;;;;;;10.33;7.60;;;1.90;99.90;;;;;;5028782;28;20466;-52
2022/12/28 11:10:15;;;;;;;10.60;9.03;;;2.00;99.90;;;;;;5028634;28;20533;-52
2022/12/28 11:12:44;;;;;;;11.83;9.73;;;2.00;99.90;;;;;;5028662;28;20697;-52
2022/12/28 11:15:15;;;;;;;9.67;8.67;;;2.10;99.90;;;;;;5028917;28;20451;-50
2022/12/28 11:17:43;;;;;;;10.53;9.47;;;2.00;99.90;;;;;;5028961;28;20466;-50
2022/12/28 11:20:18;;;;;;;12.40;10.30;;;2.20;99.90;;;;;;5028877;28;20491;-50
2022/12/28 11:22:46;;;;;;;9.10;8.20;;;2.20;99.90;;;;;;5028507;28;20863;-50
2022/12/28 11:25:16;;;;;;;8.93;8.03;;;2.30;99.90;;;;;;5028359;28;20486;-50
2022/12/28 11:27:43;;;;;;;8.30;7.50;;;2.50;99.90;;;;;;5027513;28;20442;-50
2022/12/28 11:30:14;;;;;;;7.13;6.43;;;2.40;99.90;;;;;;5027365;28;20971;-50
2022/12/28 11:32:48;;;;;;;6.70;6.03;;;2.30;99.90;;;;;;5027508;28;20529;-50
2022/12/28 11:35:18;;;;;;;10.23;8.90;;;2.40;99.90;;;;;;5026738;28;20449;-50
2022/12/28 11:37:52;;;;;;;12.00;9.47;;;2.40;99.90;;;;;;5027191;28;20468;-50
2022/12/28 11:40:49;;;;;;;10.40;9.30;;;2.30;99.90;;;;;;5026650;28;20522;-50
2022/12/28 11:43:39;;;;;;;11.83;9.37;;;2.30;99.90;;;;;;5027851;28;20832;-51
2022/12/28 11:46:27;;;;;;;6.57;5.60;;;2.60;99.90;;;;;;5027839;28;20522;-50
2022/12/28 11:48:58;;;;;;;7.73;5.20;;;2.80;99.90;;;;;;5026300;28;20875;-51
2022/12/28 11:51:28;;;;;;;8.83;6.90;;;2.80;99.90;;;;;;5027501;28;21037;-50
2022/12/28 11:53:58;;;;;;;8.17;7.03;;;2.50;99.90;;;;;;5027624;28;20570;-50
2022/12/28 11:56:27;;;;;;;7.90;6.73;;;2.50;99.90;;;;;;5028416;28;20893;-50
2022/12/28 11:59:22;;;;;;;8.63;6.40;;;2.50;99.90;;;;;;5029020;28;20482;-51
2022/12/28 12:01:54;;;;;;;7.10;6.40;;;2.60;99.90;;;;;;5029198;28;21146;-50
2022/12/28 12:04:41;;;;;;;7.30;6.60;;;2.50;99.90;;;;;;5029158;28;20497;-50
2022/12/28 12:07:22;;;;;;;5.73;5.17;;;2.50;99.90;;;;;;5029410;28;20457;-50
2022/12/28 12:10:05;;;;;;;5.90;5.23;;;2.70;99.90;;;;;;5029665;28;20455;-50
2022/12/28 12:12:37;;;;;;;6.07;5.10;;;2.70;99.90;;;;;;5030167;28;20922;-50
2022/12/28 12:15:12;;;;;;;5.40;4.50;;;2.80;99.90;;;;;;5029420;28;20483;-50
2022/12/28 12:17:44;;;;;;;8.43;6.93;;;2.80;99.90;;;;;;5029288;28;20884;-50
2022/12/28 12:20:26;;;;;;;7.00;6.40;;;2.80;99.90;;;;;;5029416;28;20451;-50
2022/12/28 12:22:59;;;;;;;9.20;6.03;;;2.80;99.90;;;;;;5029197;28;21023;-50
2022/12/28 12:25:35;;;;;;;4.97;4.43;;;2.80;99.90;;;;;;5029703;28;20447;-50
2022/12/28 12:28:08;;;;;;;4.33;3.93;;;2.80;99.90;;;;;;5030209;28;20442;-50
2022/12/28 12:30:36;;;;;;;4.20;3.43;;;2.80;99.90;;;;;;5029866;28;20538;-50
2022/12/28 12:33:06;;;;;;;4.07;3.50;;;2.90;99.90;;;;;;5029905;28;20636;-50
2022/12/28 12:35:40;;;;;;;3.27;2.97;;;3.00;99.90;;;;;;5033811;28;20873;-50
2022/12/28 12:38:20;;;;;;;2.10;1.83;;;2.90;99.90;;;;;;5034743;28;20534;-50
2022/12/28 12:41:05;;;;;;;6.87;5.17;;;2.90;99.90;;;;;;5034335;28;20521;-49
2022/12/28 12:43:42;;;;;;;6.83;5.10;;;2.90;99.90;;;;;;5034450;28;20502;-49
2022/12/28 12:46:40;;;;;;;6.97;5.43;;;2.90;99.90;;;;;;5034816;28;20523;-49
2022/12/28 12:49:39;;;;;;;6.83;6.00;;;2.90;99.90;;;;;;5034601;28;21030;-50
2022/12/28 12:52:21;;;;;;;5.83;5.33;;;3.00;99.90;;;;;;5025043;28;21054;-50
2022/12/28 12:55:03;;;;;;;7.90;5.33;;;2.90;99.90;;;;;;5031263;28;20564;-50
2022/12/28 12:57:36;;;;;;;6.53;4.90;;;2.80;99.90;;;;;;5032968;28;20533;-49
2022/12/28 13:00:12;;;;;;;5.20;4.70;;;2.90;99.90;;;;;;5039133;28;21080;-49
2022/12/28 13:03:16;;;;;;;4.87;4.47;;;2.90;99.90;;;;;;5036546;28;20815;-50
2022/12/28 13:05:49;;;;;;;4.83;4.33;;;2.80;99.90;;;;;;5002774;28;20476;-50
2022/12/28 13:08:24;;;;;;;9.70;6.27;;;2.80;99.90;;;;;;5014207;28;20555;-49
2022/12/28 13:10:53;;;;;;;9.80;6.90;;;3.00;99.90;;;;;;5028953;28;20553;-50
2022/12/28 13:13:31;;;;;;;7.93;7.07;;;3.20;99.90;;;;;;5030643;28;20875;-49
2022/12/28 13:16:02;;;;;;;9.90;6.90;;;3.30;99.90;;;;;;5030965;28;20525;-49
2022/12/28 13:18:30;;;;;;;9.70;6.70;;;3.50;99.90;;;;;;5029123;28;20558;-50
2022/12/28 13:20:58;;;;;;;6.63;4.73;;;3.60;99.90;;;;;;5030346;28;20535;-49
2022/12/28 13:23:28;;;;;;;8.70;4.53;;;3.60;99.90;;;;;;5030591;28;20544;-47
2022/12/28 13:25:58;;;;;;;4.93;4.43;;;3.70;99.90;;;;;;5030523;28;20440;-49
2022/12/28 13:28:29;;;;;;;6.03;4.60;;;3.70;99.90;;;;;;5031088;28;20442;-49
2022/12/28 13:31:05;;;;;;;7.70;5.23;;;3.80;99.90;;;;;;5030406;28;20444;-49